Time;durP1;ratioP1;P1;durP2;ratioP2;P2;SDS_P1;SDS_P2;PMS_P1;PMS_P2;Temp;Humidity;BMP_temperature;BMP_pressure;BME280_temperature;BME280_humidity;BME280_pressure;Samples;Min_cycle;Max_cycle;Signal;HPM_P1;HPM_P2
2023/06/22 00:01:07;;;;;;;7.10;2.80;;;;;;;15.63;100.00;100733.66;4973102;28;20088;-80
2023/06/22 00:03:33;;;;;;;6.63;1.85;;;;;;;15.49;100.00;100737.03;4983543;28;20038;-83
2023/06/22 00:05:59;;;;;;;3.22;1.98;;;;;;;15.44;100.00;100724.22;4965573;28;20040;-80
2023/06/22 00:08:24;;;;;;;8.05;2.05;;;;;;;15.43;100.00;100727.84;4951740;28;20038;-80
2023/06/22 00:10:50;;;;;;;4.70;2.00;;;;;;;15.41;100.00;100732.53;4967404;28;20070;-80
2023/06/22 00:13:17;;;;;;;3.08;1.77;;;;;;;15.40;100.00;100727.38;4967979;28;20034;-80
2023/06/22 00:15:44;;;;;;;5.28;2.05;;;;;;;15.39;100.00;100729.22;4971262;28;20045;-81
2023/06/22 00:18:11;;;;;;;9.70;2.10;;;;;;;15.40;100.00;100735.38;4959244;28;20032;-81
2023/06/22 00:20:37;;;;;;;4.95;2.45;;;;;;;15.43;100.00;100733.19;4947810;28;20768;-80
2023/06/22 00:23:08;;;;;;;6.40;1.90;;;;;;;15.44;100.00;100736.69;4969975;28;20045;-80
2023/06/22 00:29:34;;;;;;;6.05;2.05;;;;;;;15.30;100.00;100735.56;4980425;28;20050;-80
2023/06/22 00:32:00;;;;;;;8.13;1.55;;;;;;;15.29;100.00;100737.38;4958030;28;20081;-80
2023/06/22 00:34:25;;;;;;;4.53;2.03;;;;;;;15.27;100.00;100733.22;4958932;28;20040;-80
2023/06/22 00:36:52;;;;;;;6.97;2.05;;;;;;;15.20;100.00;100739.22;4955643;28;20029;-80
2023/06/22 00:39:17;;;;;;;3.75;1.90;;;;;;;15.16;100.00;100737.88;4961979;28;20065;-79
2023/06/22 00:41:43;;;;;;;5.93;2.22;;;;;;;15.12;100.00;100748.06;4970069;28;20041;-80
2023/06/22 00:44:09;;;;;;;8.40;2.45;;;;;;;15.06;100.00;100748.72;4967895;28;20491;-80
2023/06/22 00:46:35;;;;;;;5.38;1.90;;;;;;;14.97;100.00;100747.06;4950927;28;20405;-80
2023/06/22 00:49:01;;;;;;;7.90;1.90;;;;;;;14.88;100.00;100748.88;4949098;28;20144;-80
2023/06/22 00:51:28;;;;;;;7.57;2.50;;;;;;;14.83;100.00;100759.16;4994660;28;20037;-80
2023/06/22 00:53:54;;;;;;;4.40;2.00;;;;;;;14.75;100.00;100759.97;4934760;28;20050;-81
2023/06/22 00:56:24;;;;;;;4.60;2.05;;;;;;;14.70;100.00;100757.78;4970157;28;20026;-79
2023/06/22 00:58:52;;;;;;;4.93;1.92;;;;;;;14.68;100.00;100767.78;4972574;28;20105;-80
2023/06/22 01:01:22;;;;;;;3.17;1.85;;;;;;;14.66;100.00;100768.94;4988390;28;20065;-80
2023/06/22 01:03:50;;;;;;;4.93;2.05;;;;;;;14.62;100.00;100774.56;4938070;28;20069;-79
2023/06/22 01:06:26;;;;;;;3.38;2.00;;;;;;;14.64;100.00;100772.59;4955479;28;20049;-80
2023/06/22 01:09:15;;;;;;;4.38;2.28;;;;;;;14.66;100.00;100776.91;4950486;28;20034;-79
2023/06/22 01:11:45;;;;;;;6.47;2.10;;;;;;;14.62;100.00;100779.91;4974035;28;20026;-79
2023/06/22 01:14:23;;;;;;;5.35;2.33;;;;;;;14.62;100.00;100776.44;4939818;28;20065;-81
2023/06/22 01:16:53;;;;;;;7.43;1.95;;;;;;;14.60;100.00;100776.59;4984165;28;20476;-80
2023/06/22 01:19:34;;;;;;;8.40;2.80;;;;;;;14.61;100.00;100783.56;4966709;28;20123;-79
2023/06/22 01:22:02;;;;;;;11.35;2.30;;;;;;;14.52;100.00;100774.72;4951069;28;20537;-79
2023/06/22 01:24:47;;;;;;;7.32;2.05;;;;;;;14.42;100.00;100779.34;4958284;28;20045;-80
2023/06/22 01:27:31;;;;;;;4.70;2.15;;;;;;;14.42;100.00;100776.69;4964988;28;20035;-79
2023/06/22 01:30:00;;;;;;;3.85;2.65;;;;;;;14.43;100.00;100782.84;4958629;28;20431;-81
2023/06/22 01:32:33;;;;;;;2.95;1.80;;;;;;;14.44;100.00;100789.84;4970008;28;20042;-79
2023/06/22 01:35:01;;;;;;;3.95;2.00;;;;;;;14.39;100.00;100788.50;4972931;28;20034;-81
2023/06/22 01:37:28;;;;;;;6.78;1.80;;;;;;;14.39;100.00;100782.34;4958353;28;20626;-80
2023/06/22 01:39:56;;;;;;;2.67;1.90;;;;;;;14.37;100.00;100785.16;4964131;28;20134;-81
2023/06/22 01:42:25;;;;;;;3.05;1.85;;;;;;;14.40;100.00;100789.31;4971248;28;20042;-80
2023/06/22 01:44:52;;;;;;;7.07;2.38;;;;;;;14.44;100.00;100782.69;4985333;28;20073;-81
2023/06/22 01:47:20;;;;;;;9.25;2.35;;;;;;;14.43;100.00;100785.50;4972298;28;20031;-81
2023/06/22 01:49:46;;;;;;;4.10;2.47;;;;;;;14.41;100.00;100788.34;4968751;28;20046;-81
2023/06/22 01:52:12;;;;;;;2.67;1.92;;;;;;;14.39;100.00;100785.00;4945812;28;20034;-81
2023/06/22 01:54:39;;;;;;;4.78;2.30;;;;;;;14.37;100.00;100779.84;4987538;28;20465;-81
2023/06/22 01:57:06;;;;;;;4.70;2.20;;;;;;;14.34;100.00;100784.63;4956874;28;20070;-80
2023/06/22 01:59:39;;;;;;;3.95;2.38;;;;;;;14.29;100.00;100782.47;4974331;28;20034;-80
2023/06/22 02:02:11;;;;;;;3.83;1.92;;;;;;;14.20;100.00;100781.63;4968546;28;20058;-81
2023/06/22 02:04:52;;;;;;;5.95;2.08;;;;;;;14.11;100.00;100786.03;4974947;28;20049;-81
2023/06/22 02:07:23;;;;;;;4.07;2.25;;;;;;;13.97;100.00;100787.47;4976969;28;20497;-81
2023/06/22 02:09:52;;;;;;;3.92;2.00;;;;;;;13.89;100.00;100798.06;4963513;28;20463;-80
2023/06/22 02:12:23;;;;;;;6.78;2.17;;;;;;;13.80;100.00;100783.91;4985302;28;20153;-80
2023/06/22 02:14:49;;;;;;;7.25;2.78;;;;;;;13.71;100.00;100798.13;4957873;28;20559;-81
2023/06/22 02:17:17;;;;;;;6.63;2.20;;;;;;;13.67;100.00;100802.06;4986278;28;20383;-81
2023/06/22 02:19:43;;;;;;;7.18;2.17;;;;;;;13.59;100.00;100801.03;4936253;28;20045;-81
2023/06/22 02:22:09;;;;;;;4.10;2.47;;;;;;;13.55;100.00;100807.66;4986613;28;20026;-81
2023/06/22 02:24:36;;;;;;;3.38;1.60;;;;;;;13.49;100.00;100808.25;4953498;28;20038;-80
2023/06/22 02:27:02;;;;;;;2.10;1.90;;;;;;;13.44;100.00;100814.00;4981976;28;20057;-80
2023/06/22 02:29:31;;;;;;;4.93;2.20;;;;;;;13.41;100.00;100819.63;4977111;28;20085;-81
2023/06/22 02:31:58;;;;;;;4.82;2.30;;;;;;;13.32;100.00;100815.22;4952081;28;20042;-81
2023/06/22 02:34:25;;;;;;;8.23;2.78;;;;;;;13.25;100.00;100815.84;4950757;28;20513;-81
2023/06/22 02:36:51;;;;;;;4.07;2.10;;;;;;;13.19;100.00;100820.91;4965056;28;20093;-81
2023/06/22 02:39:22;;;;;;;5.90;2.35;;;;;;;13.06;100.00;100816.03;4940566;28;20733;-80
2023/06/22 02:41:50;;;;;;;2.30;1.90;;;;;;;12.86;100.00;100818.81;4962609;28;20030;-81
2023/06/22 02:44:16;;;;;;;3.83;2.08;;;;;;;12.74;100.00;100819.00;4956950;28;20030;-80
2023/06/22 02:46:42;;;;;;;5.05;1.70;;;;;;;12.72;100.00;100817.50;4956206;28;20108;-80
2023/06/22 02:49:09;;;;;;;4.68;2.25;;;;;;;12.70;100.00;100816.81;4946068;28;20026;-81
2023/06/22 02:51:35;;;;;;;4.18;2.38;;;;;;;12.70;100.00;100815.00;4971669;28;20108;-80
2023/06/22 02:54:01;;;;;;;5.72;2.22;;;;;;;12.73;100.00;100820.00;4957573;28;20107;-80
2023/06/22 02:56:30;;;;;;;3.60;2.45;;;;;;;12.76;100.00;100817.06;4939743;28;20505;-80
2023/06/22 02:59:01;;;;;;;9.50;2.40;;;;;;;12.80;100.00;100820.25;4954211;28;20023;-80
2023/06/22 03:01:37;;;;;;;3.60;1.98;;;;;;;12.81;100.00;100821.91;4936384;29;20043;-81
2023/06/22 03:04:04;;;;;;;2.92;2.13;;;;;;;12.87;100.00;100821.31;4956479;28;20031;-81
2023/06/22 03:06:30;;;;;;;7.22;2.78;;;;;;;12.95;100.00;100825.03;4965790;28;20041;-81
2023/06/22 03:09:00;;;;;;;8.57;2.22;;;;;;;12.97;100.00;100825.69;4954443;28;20070;-81
2023/06/22 03:11:27;;;;;;;3.17;2.03;;;;;;;12.90;100.00;100823.66;4939591;28;20551;-81
2023/06/22 03:13:53;;;;;;;7.07;2.08;;;;;;;12.84;100.00;100818.94;4938599;28;20485;-82
2023/06/22 03:16:19;;;;;;;2.63;2.05;;;;;;;12.82;100.00;100820.09;4939285;28;20041;-82
2023/06/22 03:18:45;;;;;;;5.88;1.83;;;;;;;12.80;100.00;100822.91;4968148;28;20074;-80
2023/06/22 03:21:12;;;;;;;9.05;2.33;;;;;;;12.80;100.00;100822.06;4955304;28;20071;-81
2023/06/22 03:23:38;;;;;;;3.00;2.38;;;;;;;12.80;100.00;100819.41;4938124;28;20054;-81
2023/06/22 03:26:04;;;;;;;6.32;2.50;;;;;;;12.81;100.00;100821.06;4963948;28;20065;-80
2023/06/22 03:28:30;;;;;;;4.28;1.88;;;;;;;12.74;100.00;100815.53;4950021;28;20027;-82
2023/06/22 03:30:58;;;;;;;3.80;1.80;;;;;;;12.71;100.00;100815.84;4971640;28;20499;-81
2023/06/22 03:33:24;;;;;;;3.60;2.05;;;;;;;12.72;100.00;100821.00;4951751;28;20031;-80
2023/06/22 03:35:50;;;;;;;3.05;1.60;;;;;;;12.71;100.00;100815.84;4935824;28;20042;-81
2023/06/22 03:38:19;;;;;;;3.08;2.00;;;;;;;12.75;100.00;100815.41;4953059;28;20035;-80
2023/06/22 03:40:45;;;;;;;7.32;2.10;;;;;;;12.70;100.00;100817.66;4950608;28;20114;-80
2023/06/22 03:43:11;;;;;;;5.72;2.25;;;;;;;12.67;100.00;100820.59;4946135;28;20090;-80
2023/06/22 03:45:37;;;;;;;5.35;2.40;;;;;;;12.64;100.00;100821.75;4952396;28;20034;-80
2023/06/22 03:48:03;;;;;;;5.00;2.08;;;;;;;12.63;100.00;100812.09;4955470;28;20038;-80
2023/06/22 03:50:29;;;;;;;10.27;2.35;;;;;;;12.65;100.00;100818.09;4938309;28;20045;-80
2023/06/22 03:52:55;;;;;;;3.33;2.40;;;;;;;12.69;100.00;100820.44;4971877;28;20054;-80
2023/06/22 03:55:21;;;;;;;7.35;2.53;;;;;;;12.69;100.00;100817.81;4949414;28;20030;-80
2023/06/22 03:57:47;;;;;;;7.10;2.20;;;;;;;12.64;100.00;100815.59;4940487;28;20030;-80
2023/06/22 04:00:15;;;;;;;4.63;2.25;;;;;;;12.59;100.00;100821.34;4967244;28;20038;-80
2023/06/22 04:02:42;;;;;;;5.93;2.10;;;;;;;12.57;100.00;100820.66;4957059;28;20034;-81
2023/06/22 04:05:09;;;;;;;4.72;2.03;;;;;;;12.65;100.00;100823.41;4959557;28;20033;-81
2023/06/22 04:07:36;;;;;;;5.05;2.15;;;;;;;12.65;100.00;100830.50;4973206;28;20559;-81
2023/06/22 04:10:04;;;;;;;2.60;2.05;;;;;;;12.68;100.00;100829.41;4949772;28;20073;-81
2023/06/22 04:12:30;;;;;;;5.55;2.92;;;;;;;12.64;100.00;100834.16;4985704;28;20027;-82
2023/06/22 04:14:55;;;;;;;5.70;2.55;;;;;;;12.61;100.00;100831.81;4970957;28;20042;-82
2023/06/22 04:17:24;;;;;;;4.53;2.30;;;;;;;12.58;100.00;100829.44;4956338;28;20373;-81
2023/06/22 04:19:51;;;;;;;6.00;2.63;;;;;;;12.58;100.00;100822.31;4936758;28;20448;-80
2023/06/22 04:22:17;;;;;;;4.15;2.42;;;;;;;12.59;100.00;100825.81;4950467;28;20161;-80
2023/06/22 04:24:44;;;;;;;5.00;2.72;;;;;;;12.56;100.00;100818.16;4940311;28;20049;-80
2023/06/22 04:27:09;;;;;;;5.18;3.00;;;;;;;12.57;100.00;100822.47;4958216;28;20392;-80
2023/06/22 04:29:35;;;;;;;5.38;2.42;;;;;;;12.56;100.00;100828.75;4972144;28;20034;-80
2023/06/22 04:32:05;;;;;;;4.55;2.60;;;;;;;12.51;100.00;100832.69;4958288;28;20163;-79
2023/06/22 04:34:31;;;;;;;8.52;2.38;;;;;;;12.44;100.00;100833.44;4976133;28;20038;-80
2023/06/22 04:36:57;;;;;;;8.98;1.67;;;;;;;12.36;100.00;100832.34;4940132;28;20045;-80
2023/06/22 04:39:24;;;;;;;2.28;1.95;;;;;;;12.27;100.00;100823.47;4978220;28;20030;-80
2023/06/22 04:41:51;;;;;;;4.75;2.22;;;;;;;12.22;100.00;100833.66;4972531;28;20023;-80
2023/06/22 04:44:24;;;;;;;2.53;2.08;;;;;;;12.25;100.00;100841.31;4946119;28;20039;-80
2023/06/22 04:46:59;;;;;;;3.72;2.00;;;;;;;12.26;100.00;100842.16;4983893;28;20165;-80
2023/06/22 04:49:33;;;;;;;8.52;2.20;;;;;;;12.26;100.00;100848.28;4999094;28;20645;-81
2023/06/22 04:51:59;;;;;;;4.03;1.40;;;;;;;12.24;100.00;100837.00;4942313;28;20038;-80
2023/06/22 04:54:25;;;;;;;2.67;1.77;;;;;;;12.24;100.00;100844.09;4965640;28;20043;-80
2023/06/22 04:56:56;;;;;;;3.05;1.83;;;;;;;12.27;100.00;100843.81;4937775;28;20125;-80
2023/06/22 04:59:29;;;;;;;3.35;1.63;;;;;;;12.30;100.00;100845.31;4977136;28;20521;-80
2023/06/22 05:01:56;;;;;;;4.03;2.00;;;;;;;12.35;100.00;100853.69;4987327;28;20066;-80
2023/06/22 05:04:25;;;;;;;2.60;2.03;;;;;;;12.35;100.00;100849.22;4973153;28;20493;-80
2023/06/22 05:06:52;;;;;;;4.63;1.95;;;;;;;12.37;100.00;100849.94;4974670;28;20077;-80
2023/06/22 05:09:18;;;;;;;2.88;2.15;;;;;;;12.44;100.00;100849.34;4976317;28;20026;-80
2023/06/22 05:11:44;;;;;;;5.50;1.92;;;;;;;12.52;100.00;100846.78;4955768;28;20042;-80
2023/06/22 05:14:10;;;;;;;3.17;1.98;;;;;;;12.53;100.00;100845.81;4980436;28;20038;-80
2023/06/22 05:16:37;;;;;;;2.95;1.90;;;;;;;12.49;100.00;100847.91;4974719;28;20133;-79
2023/06/22 05:19:03;;;;;;;5.75;1.70;;;;;;;12.38;100.00;100845.44;4957896;28;20081;-80
2023/06/22 05:21:30;;;;;;;7.47;2.60;;;;;;;12.43;100.00;100855.59;4946482;28;20041;-79
2023/06/22 05:24:02;;;;;;;4.30;1.90;;;;;;;12.40;100.00;100854.94;4973714;28;20034;-80
2023/06/22 05:26:30;;;;;;;4.47;2.60;;;;;;;12.39;100.00;100853.25;4955839;28;20109;-80
2023/06/22 05:28:56;;;;;;;3.00;2.50;;;;;;;12.36;100.00;100858.03;4973187;28;20128;-79
2023/06/22 05:31:22;;;;;;;4.50;2.65;;;;;;;12.31;100.00;100849.66;4986531;28;20038;-80
2023/06/22 05:33:49;;;;;;;4.60;2.33;;;;;;;12.30;100.00;100846.19;4973034;28;20066;-80
2023/06/22 05:36:15;;;;;;;4.25;2.20;;;;;;;12.35;100.00;100848.38;4968834;28;20065;-79
2023/06/22 05:38:41;;;;;;;4.50;2.30;;;;;;;12.44;100.00;100852.81;4975917;28;20598;-80
2023/06/22 05:41:08;;;;;;;4.68;2.40;;;;;;;12.48;100.00;100862.16;4975083;28;20034;-79
2023/06/22 05:43:34;;;;;;;7.20;2.22;;;;;;;12.47;100.00;100854.34;4973450;28;20034;-80
2023/06/22 05:46:01;;;;;;;3.88;2.63;;;;;;;12.52;100.00;100857.38;4953274;28;20487;-80
2023/06/22 05:48:27;;;;;;;4.60;2.42;;;;;;;12.58;100.00;100861.28;4978171;28;20034;-80
2023/06/22 05:50:53;;;;;;;7.53;2.22;;;;;;;12.56;100.00;100860.56;4963334;28;20377;-80
2023/06/22 05:53:19;;;;;;;3.03;2.35;;;;;;;12.57;100.00;100859.59;4981739;28;20038;-80
2023/06/22 05:55:45;;;;;;;4.60;2.60;;;;;;;12.56;100.00;100857.91;4928026;28;20030;-79
2023/06/22 05:58:11;;;;;;;5.65;2.53;;;;;;;12.59;100.00;100850.50;4938337;28;20023;-80
2023/06/22 06:00:37;;;;;;;5.40;2.88;;;;;;;12.58;100.00;100848.00;4954218;28;20557;-80
2023/06/22 06:03:03;;;;;;;11.82;2.90;;;;;;;12.61;100.00;100845.88;4964704;28;20097;-82
2023/06/22 06:05:32;;;;;;;6.32;3.65;;;;;;;12.67;100.00;100855.06;4941525;28;20042;-81
2023/06/22 06:07:59;;;;;;;8.07;3.33;;;;;;;12.72;100.00;100854.63;4958486;28;20085;-80
2023/06/22 06:10:25;;;;;;;7.55;3.10;;;;;;;12.77;100.00;100855.84;4961063;28;20031;-80
2023/06/22 06:12:51;;;;;;;6.18;3.70;;;;;;;12.82;100.00;100857.22;4959684;28;20050;-80
2023/06/22 06:15:18;;;;;;;5.35;3.45;;;;;;;12.92;100.00;100858.00;4956222;28;20688;-80
2023/06/22 06:17:51;;;;;;;8.85;3.55;;;;;;;12.95;100.00;100865.66;4940976;28;20033;-80
2023/06/22 06:20:25;;;;;;;9.65;3.15;;;;;;;12.97;100.00;100862.84;4972145;28;20035;-80
2023/06/22 06:22:52;;;;;;;9.25;2.80;;;;;;;12.98;100.00;100857.41;4940271;28;20053;-80
2023/06/22 06:25:19;;;;;;;5.72;3.22;;;;;;;13.07;100.00;100860.97;4969226;28;20034;-79
2023/06/22 06:27:46;;;;;;;7.07;2.80;;;;;;;13.20;100.00;100870.38;4964849;28;20030;-80
2023/06/22 06:30:13;;;;;;;6.75;2.97;;;;;;;13.21;100.00;100864.94;4944908;28;20046;-81
2023/06/22 06:32:40;;;;;;;5.97;3.15;;;;;;;13.30;100.00;100876.44;4917815;28;20038;-80
2023/06/22 06:35:07;;;;;;;5.85;2.67;;;;;;;13.36;100.00;100875.03;4980388;28;20038;-80
2023/06/22 06:37:38;;;;;;;4.68;2.60;;;;;;;13.47;100.00;100866.78;4958841;28;20027;-81
2023/06/22 06:40:07;;;;;;;7.63;2.70;;;;;;;13.57;100.00;100871.25;4961633;28;20559;-79
2023/06/22 06:42:33;;;;;;;4.22;2.40;;;;;;;13.71;100.00;100868.00;4948117;28;20027;-80
2023/06/22 06:44:59;;;;;;;4.57;2.28;;;;;;;13.87;100.00;100869.16;4969305;28;20193;-80
2023/06/22 06:47:25;;;;;;;7.50;2.90;;;;;;;13.95;100.00;100871.84;4959538;28;20613;-80
2023/06/22 06:49:51;;;;;;;5.47;2.45;;;;;;;13.97;100.00;100872.53;4974591;28;20113;-80
2023/06/22 06:52:17;;;;;;;7.47;2.80;;;;;;;13.95;100.00;100874.50;4975916;28;20023;-81
2023/06/22 06:54:42;;;;;;;5.85;2.60;;;;;;;14.00;100.00;100872.22;4989016;28;20034;-81
2023/06/22 06:57:10;;;;;;;10.57;2.13;;;;;;;14.13;100.00;100870.94;4942622;28;20061;-80
2023/06/22 06:59:36;;;;;;;13.65;2.90;;;;;;;14.24;100.00;100876.00;4982584;28;20089;-80
2023/06/22 07:02:02;;;;;;;8.23;3.33;;;;;;;14.32;100.00;100877.88;4976466;28;20038;-80
2023/06/22 07:04:28;;;;;;;10.55;4.13;;;;;;;14.47;100.00;100871.94;4959078;28;20038;-80
2023/06/22 07:06:54;;;;;;;8.55;3.30;;;;;;;14.54;100.00;100885.47;4946862;28;20370;-80
2023/06/22 07:09:19;;;;;;;7.25;3.42;;;;;;;14.54;100.00;100880.13;4959484;28;20125;-80
2023/06/22 07:11:45;;;;;;;9.27;4.00;;;;;;;14.56;100.00;100886.09;4958180;28;20480;-80
2023/06/22 07:14:11;;;;;;;7.35;3.83;;;;;;;14.66;100.00;100878.84;4951900;28;20038;-81
2023/06/22 07:16:37;;;;;;;7.40;3.22;;;;;;;14.82;100.00;100886.09;4974952;28;20030;-81
2023/06/22 07:19:03;;;;;;;8.77;4.10;;;;;;;14.99;100.00;100878.97;4950595;28;20034;-80
2023/06/22 07:21:29;;;;;;;8.95;3.00;;;;;;;15.28;100.00;100876.03;4961678;28;20137;-80
2023/06/22 07:23:54;;;;;;;7.80;3.50;;;;;;;15.58;100.00;100884.34;4974314;28;20035;-79
2023/06/22 07:26:20;;;;;;;6.07;3.38;;;;;;;15.86;100.00;100876.84;4962180;28;20142;-81
2023/06/22 07:28:46;;;;;;;10.55;4.55;;;;;;;16.23;100.00;100881.78;4974809;28;20500;-81
2023/06/22 07:31:12;;;;;;;7.95;3.60;;;;;;;16.55;100.00;100876.50;4964453;28;20117;-81
2023/06/22 07:33:38;;;;;;;5.32;3.53;;;;;;;16.82;100.00;100874.38;4956223;28;20439;-79
2023/06/22 07:36:07;;;;;;;10.07;3.65;;;;;;;17.08;100.00;100879.44;4955716;28;20042;-80
2023/06/22 07:38:35;;;;;;;5.35;4.25;;;;;;;17.30;100.00;100881.47;4974870;28;20550;-80
2023/06/22 07:41:01;;;;;;;12.45;4.18;;;;;;;17.41;100.00;100882.88;4954538;28;20471;-78
2023/06/22 07:43:26;;;;;;;5.60;3.15;;;;;;;17.45;100.00;100881.53;4955186;28;20129;-82
2023/06/22 07:45:53;;;;;;;7.53;3.83;;;;;;;17.56;100.00;100881.09;4948406;28;20484;-81
2023/06/22 07:48:22;;;;;;;9.63;3.88;;;;;;;17.65;100.00;100879.19;4954131;28;20038;-82
2023/06/22 07:50:48;;;;;;;9.00;3.63;;;;;;;17.66;100.00;100883.50;4961084;28;20045;-82
2023/06/22 07:53:14;;;;;;;10.48;4.18;;;;;;;17.71;100.00;100875.78;4960574;28;20082;-80
2023/06/22 07:55:40;;;;;;;6.15;3.72;;;;;;;17.84;100.00;100877.00;4967488;28;20043;-80
2023/06/22 07:58:06;;;;;;;8.52;3.85;;;;;;;17.95;100.00;100889.09;4976269;28;20042;-79
2023/06/22 08:00:33;;;;;;;7.57;3.63;;;;;;;17.97;100.00;100882.56;4960739;28;20581;-80
2023/06/22 08:02:59;;;;;;;6.85;3.78;;;;;;;18.04;100.00;100881.84;4951130;28;20054;-80
2023/06/22 08:05:26;;;;;;;6.28;3.40;;;;;;;18.07;100.00;100881.47;4968251;28;20116;-80
2023/06/22 08:07:51;;;;;;;5.20;3.40;;;;;;;18.14;100.00;100886.94;4971044;28;20069;-79
2023/06/22 08:10:17;;;;;;;6.80;3.45;;;;;;;18.17;100.00;100892.75;4940329;28;20038;-80
2023/06/22 08:12:43;;;;;;;7.82;2.90;;;;;;;18.21;100.00;100883.34;4962429;28;20139;-82
2023/06/22 08:15:09;;;;;;;5.72;3.08;;;;;;;18.16;100.00;100883.06;4968361;28;20022;-82
2023/06/22 08:17:37;;;;;;;5.40;3.00;;;;;;;18.23;100.00;100885.84;4958591;28;20042;-81
2023/06/22 08:20:09;;;;;;;7.82;3.15;;;;;;;18.30;100.00;100886.75;4980153;28;20042;-81
2023/06/22 08:22:36;;;;;;;7.30;3.70;;;;;;;18.31;100.00;100885.75;4969367;28;20106;-81
2023/06/22 08:25:03;;;;;;;5.70;3.50;;;;;;;18.41;100.00;100887.31;4962662;28;20031;-80
2023/06/22 08:27:32;;;;;;;6.82;3.00;;;;;;;18.40;100.00;100885.63;4984719;28;20388;-79
2023/06/22 08:29:59;;;;;;;6.72;3.45;;;;;;;18.38;100.00;100883.16;4962907;28;20462;-80
2023/06/22 08:32:28;;;;;;;5.05;2.25;;;;;;;18.44;100.00;100879.72;4965875;28;20036;-79
2023/06/22 08:34:55;;;;;;;6.80;2.28;;;;;;;18.49;100.00;100884.50;4963384;28;20508;-79
2023/06/22 08:37:24;;;;;;;6.15;2.25;;;;;;;18.55;100.00;100874.94;4978940;28;20073;-80
2023/06/22 08:39:50;;;;;;;4.22;2.05;;;;;;;18.65;100.00;100878.13;4971090;28;20042;-80
2023/06/22 08:42:16;;;;;;;4.75;2.40;;;;;;;18.70;100.00;100872.22;4967712;28;20038;-79
2023/06/22 08:44:42;;;;;;;4.13;2.17;;;;;;;18.70;100.00;100867.69;4954098;28;20034;-79
2023/06/22 08:47:08;;;;;;;2.80;1.67;;;;;;;18.73;100.00;100869.16;4951251;28;20035;-78
2023/06/22 08:49:34;;;;;;;5.03;1.70;;;;;;;18.72;100.00;100868.34;4949481;28;20038;-80
2023/06/22 08:52:00;;;;;;;5.68;2.03;;;;;;;18.79;100.00;100865.72;4973210;28;20039;-82
2023/06/22 08:54:25;;;;;;;6.57;2.28;;;;;;;18.80;100.00;100862.03;4943449;28;20042;-82
2023/06/22 08:56:51;;;;;;;3.20;1.80;;;;;;;18.93;100.00;100868.56;4987934;28;20065;-82
2023/06/22 08:59:17;;;;;;;5.30;1.60;;;;;;;19.00;100.00;100871.31;4964300;28;20062;-79
2023/06/22 09:01:45;;;;;;;5.13;1.48;;;;;;;19.04;100.00;100864.53;4956506;28;20044;-79
2023/06/22 09:04:11;;;;;;;4.32;1.55;;;;;;;19.11;100.00;100870.84;4954795;28;20099;-83
2023/06/22 09:06:44;;;;;;;5.45;1.40;;;;;;;19.23;100.00;100862.28;4948019;28;20050;-82
2023/06/22 09:09:12;;;;;;;4.63;1.27;;;;;;;19.41;100.00;100867.19;4967901;28;20505;-79
2023/06/22 09:11:38;;;;;;;1.85;1.58;;;;;;;19.48;100.00;100865.38;4962368;28;20039;-81
2023/06/22 09:14:04;;;;;;;5.80;1.77;;;;;;;19.58;100.00;100865.91;4932636;28;20035;-79
2023/06/22 09:16:30;;;;;;;3.05;1.70;;;;;;;19.69;100.00;100867.22;4955469;28;20041;-80
2023/06/22 09:18:56;;;;;;;2.90;1.60;;;;;;;19.80;100.00;100867.69;4972022;28;20088;-79
2023/06/22 09:21:21;;;;;;;5.47;2.28;;;;;;;19.87;100.00;100863.22;4945688;28;20061;-79
2023/06/22 09:23:51;;;;;;;3.67;1.95;;;;;;;19.95;100.00;100857.72;4954382;28;20080;-80
2023/06/22 09:26:18;;;;;;;3.08;1.73;;;;;;;20.00;100.00;100865.16;4966525;28;20038;-80
2023/06/22 09:28:44;;;;;;;4.82;2.55;;;;;;;20.03;100.00;100858.59;4953298;28;20042;-80
2023/06/22 09:31:10;;;;;;;7.75;2.05;;;;;;;19.95;100.00;100856.88;4982426;28;20117;-79
2023/06/22 09:33:37;;;;;;;5.38;1.77;;;;;;;19.96;100.00;100862.03;4941431;28;20034;-79
2023/06/22 09:36:07;;;;;;;4.18;2.00;;;;;;;19.95;100.00;100863.06;4892084;28;20061;-79
2023/06/22 09:38:39;;;;;;;3.33;1.80;;;;;;;20.03;100.00;100855.91;4966228;28;20034;-80
2023/06/22 09:41:05;;;;;;;3.67;1.60;;;;;;;20.06;100.00;100868.94;4928082;28;20519;-78
2023/06/22 09:43:32;;;;;;;15.35;1.80;;;;;;;20.16;100.00;100873.94;4974878;28;20034;-80
2023/06/22 09:45:58;;;;;;;3.83;2.03;;;;;;;20.14;100.00;100868.78;4960095;28;20506;-79
2023/06/22 09:48:24;;;;;;;4.63;2.30;;;;;;;20.26;100.00;100873.59;4968834;28;20031;-81
2023/06/22 09:50:50;;;;;;;3.70;2.00;;;;;;;20.33;100.00;100872.59;4943051;28;20034;-78
2023/06/22 09:53:16;;;;;;;4.20;1.50;;;;;;;20.31;100.00;100877.31;4953251;28;20043;-81
2023/06/22 09:55:42;;;;;;;4.80;2.05;;;;;;;20.35;100.00;100871.56;4953938;28;20030;-79
2023/06/22 09:58:08;;;;;;;4.68;2.05;;;;;;;20.39;100.00;100876.31;4959888;28;20038;-79
2023/06/22 10:00:34;;;;;;;5.35;2.22;;;;;;;20.39;100.00;100873.66;4963414;28;20125;-78
2023/06/22 10:03:00;;;;;;;2.72;1.40;;;;;;;20.43;100.00;100868.72;4980314;28;20118;-80
2023/06/22 10:05:26;;;;;;;6.70;1.50;;;;;;;20.54;100.00;100873.50;4990427;28;20108;-79
2023/06/22 10:07:52;;;;;;;4.50;1.60;;;;;;;20.68;100.00;100874.38;4970214;28;20062;-80
2023/06/22 10:10:18;;;;;;;4.78;1.67;;;;;;;20.78;100.00;100874.00;4976773;28;20045;-80
2023/06/22 10:12:55;;;;;;;2.75;1.58;;;;;;;20.94;100.00;100882.75;4959839;28;20033;-79
2023/06/22 10:15:21;;;;;;;2.35;1.55;;;;;;;20.98;100.00;100883.16;4976254;28;20053;-79
2023/06/22 10:17:47;;;;;;;2.60;1.55;;;;;;;21.07;100.00;100884.66;4940785;28;20026;-79
2023/06/22 10:20:13;;;;;;;2.80;1.58;;;;;;;21.15;100.00;100886.31;4980240;28;20057;-78
2023/06/22 10:22:44;;;;;;;2.97;1.80;;;;;;;21.25;100.00;100889.44;4962190;28;20793;-79
2023/06/22 10:25:12;;;;;;;6.93;2.47;;;;;;;21.28;100.00;100886.31;4949176;28;20137;-79
2023/06/22 10:27:41;;;;;;;3.78;1.98;;;;;;;21.40;100.00;100883.03;4976086;28;20074;-80
2023/06/22 10:30:09;;;;;;;2.60;1.55;;;;;;;21.50;100.00;100886.13;4956807;28;20034;-79
2023/06/22 10:32:36;;;;;;;2.00;1.48;;;;;;;21.60;100.00;100888.41;4974290;28;20034;-78
2023/06/22 10:35:02;;;;;;;3.42;1.63;;;;;;;21.65;100.00;100894.00;4957594;28;20034;-78
2023/06/22 10:37:28;;;;;;;4.10;1.70;;;;;;;21.69;100.00;100884.47;4958888;28;20033;-78
2023/06/22 10:39:54;;;;;;;4.20;1.70;;;;;;;21.74;100.00;100891.09;4941519;28;20368;-78
2023/06/22 10:42:20;;;;;;;3.40;1.60;;;;;;;21.74;99.99;100893.78;4956465;28;20039;-78
2023/06/22 10:44:46;;;;;;;3.50;1.50;;;;;;;21.77;99.41;100883.44;4975722;28;20031;-79
2023/06/22 10:47:12;;;;;;;2.60;1.70;;;;;;;21.85;98.16;100882.41;4954393;28;20038;-80
2023/06/22 10:49:39;;;;;;;2.35;1.50;;;;;;;21.94;97.66;100883.03;4955226;28;20042;-82
2023/06/22 10:52:06;;;;;;;5.32;1.77;;;;;;;21.97;97.71;100881.78;4959341;28;20038;-79
2023/06/22 10:54:33;;;;;;;5.20;1.77;;;;;;;21.95;98.49;100887.38;4954036;28;20038;-78
2023/06/22 10:57:00;;;;;;;4.20;1.60;;;;;;;21.92;99.30;100885.09;4954654;28;20043;-79
2023/06/22 10:59:27;;;;;;;2.92;1.60;;;;;;;21.97;100.00;100879.91;4928271;28;20031;-78
2023/06/22 11:01:53;;;;;;;4.85;2.00;;;;;;;22.08;100.00;100877.59;4949330;28;20110;-79
2023/06/22 11:04:19;;;;;;;2.45;1.70;;;;;;;22.16;99.92;100877.38;4947596;28;20030;-78
2023/06/22 11:06:45;;;;;;;4.90;1.92;;;;;;;22.20;99.25;100881.31;4934936;28;20027;-79
2023/06/22 11:09:11;;;;;;;3.03;1.70;;;;;;;22.20;99.67;100878.63;4945356;28;20038;-80
2023/06/22 11:11:37;;;;;;;2.83;1.60;;;;;;;22.18;99.44;100883.41;4937390;28;20543;-80
2023/06/22 11:14:02;;;;;;;3.08;1.90;;;;;;;22.09;99.52;100869.31;4964998;28;20034;-81
2023/06/22 11:16:28;;;;;;;7.97;1.80;;;;;;;22.08;99.44;100869.53;4919271;28;20039;-84
2023/06/22 11:18:54;;;;;;;5.90;1.90;;;;;;;22.17;98.57;100871.78;4941289;28;20038;-80
2023/06/22 11:21:20;;;;;;;4.43;1.73;;;;;;;22.28;98.18;100872.19;4954599;28;20043;-79